createdAt,value
2022-07-28T00:01:03.103Z,2.85
2022-07-28T00:03:35.327Z,2.70
2022-07-28T00:06:04.289Z,2.58
2022-07-28T00:08:34.767Z,2.60
2022-07-28T00:11:06.947Z,2.33
2022-07-28T00:13:41.175Z,2.42
2022-07-28T00:16:15.120Z,2.05
2022-07-28T00:18:45.446Z,2.42
2022-07-28T00:21:12.850Z,2.40
2022-07-28T00:23:42.113Z,2.90
2022-07-28T00:26:12.569Z,2.97
2022-07-28T00:28:40.976Z,2.38
2022-07-28T00:31:13.224Z,2.72
2022-07-28T00:33:41.732Z,3.00
2022-07-28T00:36:11.728Z,3.00
2022-07-28T00:38:45.932Z,3.30
2022-07-28T00:41:25.450Z,3.30
2022-07-28T00:43:57.728Z,2.80
2022-07-28T00:46:31.450Z,2.60
2022-07-28T00:49:00.036Z,3.42
2022-07-28T00:51:28.496Z,3.30
2022-07-28T00:53:56.599Z,3.05
2022-07-28T00:56:24.488Z,3.17
2022-07-28T00:58:53.600Z,3.55
2022-07-28T01:01:25.328Z,2.90
2022-07-28T01:03:59.294Z,3.75
2022-07-28T01:06:43.956Z,3.17
2022-07-28T01:09:42.172Z,3.33
2022-07-28T01:12:44.418Z,3.85
2022-07-28T01:15:19.477Z,3.55
2022-07-28T01:18:02.255Z,3.47
2022-07-28T01:20:54.243Z,3.50
2022-07-28T01:23:43.049Z,2.95
2022-07-28T01:26:33.372Z,3.58
2022-07-28T01:29:04.190Z,3.90
2022-07-28T01:31:50.192Z,3.50
2022-07-28T01:34:35.438Z,3.70
2022-07-28T01:37:18.947Z,4.03
2022-07-28T01:39:47.744Z,3.53
2022-07-28T01:42:18.911Z,3.20
2022-07-28T01:44:55.327Z,3.17
2022-07-28T01:47:31.215Z,3.63
2022-07-28T01:50:06.802Z,3.17
2022-07-28T01:53:12.034Z,3.25
2022-07-28T01:56:17.063Z,3.55
2022-07-28T01:59:16.115Z,3.25
2022-07-28T02:02:05.674Z,3.80
2022-07-28T02:04:37.280Z,4.28
2022-07-28T02:07:12.033Z,4.07
2022-07-28T02:09:41.952Z,3.42
2022-07-28T02:12:13.103Z,4.15
2022-07-28T02:14:42.393Z,3.47
2022-07-28T02:17:15.370Z,3.47
2022-07-28T02:19:47.498Z,4.55
2022-07-28T02:22:19.715Z,3.85
2022-07-28T02:24:53.425Z,4.40
2022-07-28T02:27:50.920Z,4.20
2022-07-28T02:30:51.043Z,4.18
2022-07-28T02:33:57.790Z,3.97
2022-07-28T02:36:39.639Z,4.10
2022-07-28T02:39:23.262Z,4.20
2022-07-28T02:42:17.649Z,4.97
2022-07-28T02:44:57.964Z,4.13
2022-07-28T02:47:35.439Z,5.05
2022-07-28T02:50:05.489Z,4.30
2022-07-28T02:52:34.273Z,4.38
2022-07-28T02:55:03.560Z,4.40
2022-07-28T02:57:32.302Z,3.90
2022-07-28T02:59:59.885Z,4.53
2022-07-28T03:02:30.923Z,4.43
2022-07-28T03:05:00.913Z,3.65
2022-07-28T03:07:30.818Z,3.80
2022-07-28T03:09:59.275Z,3.72
2022-07-28T03:12:27.688Z,3.75
2022-07-28T03:14:55.591Z,3.95
2022-07-28T03:17:23.238Z,3.75
2022-07-28T03:19:50.720Z,4.15
2022-07-28T03:22:18.583Z,4.05
2022-07-28T03:24:51.429Z,3.85
2022-07-28T03:27:25.674Z,4.13
2022-07-28T03:30:14.937Z,4.47
2022-07-28T03:33:00.316Z,3.97
2022-07-28T03:38:13.968Z,3.90
2022-07-28T03:40:51.996Z,4.72
2022-07-28T03:43:26.695Z,4.32
2022-07-28T03:45:56.040Z,4.53
2022-07-28T03:48:29.674Z,3.88
2022-07-28T03:50:57.758Z,3.83
2022-07-28T03:53:29.602Z,3.67
2022-07-28T03:55:58.329Z,4.18
2022-07-28T03:58:28.907Z,4.28
2022-07-28T04:00:58.360Z,4.03
2022-07-28T04:03:36.495Z,4.13
2022-07-28T04:06:13.160Z,4.40
2022-07-28T04:08:40.720Z,4.95
2022-07-28T04:11:09.349Z,4.30
2022-07-28T04:13:53.048Z,4.90
2022-07-28T04:16:21.027Z,5.03
2022-07-28T04:18:53.468Z,4.32
2022-07-28T04:21:25.848Z,4.70
2022-07-28T04:24:01.942Z,5.05
2022-07-28T04:26:30.434Z,4.95
2022-07-28T04:28:58.343Z,5.50
2022-07-28T04:31:32.933Z,5.47
2022-07-28T04:36:55.153Z,6.13
2022-07-28T04:39:27.666Z,6.30
2022-07-28T04:42:04.290Z,5.88
2022-07-28T04:44:38.099Z,5.38
2022-07-28T04:47:31.583Z,5.32
2022-07-28T04:50:03.126Z,5.97
2022-07-28T04:52:31.353Z,5.78
2022-07-28T04:55:06.509Z,5.35
2022-07-28T04:57:34.324Z,5.22
2022-07-28T05:00:02.052Z,5.30
2022-07-28T05:02:33.071Z,5.75
2022-07-28T05:05:00.579Z,5.70
2022-07-28T05:07:27.991Z,7.15
2022-07-28T05:09:55.666Z,7.15
2022-07-28T05:12:26.161Z,5.60
2022-07-28T05:14:54.979Z,5.78
2022-07-28T05:17:22.827Z,6.00
2022-07-28T05:19:50.251Z,6.13
2022-07-28T05:22:17.770Z,6.72
2022-07-28T05:24:45.917Z,5.93
2022-07-28T05:27:15.542Z,5.85
2022-07-28T05:29:47.384Z,7.30
2022-07-28T05:32:18.216Z,6.57
2022-07-28T05:34:46.170Z,7.15
2022-07-28T05:37:14.606Z,6.38
2022-07-28T05:39:45.063Z,6.43
2022-07-28T05:42:12.535Z,6.55
2022-07-28T05:44:40.593Z,6.93
2022-07-28T05:47:09.590Z,7.28
2022-07-28T05:49:39.244Z,5.43
2022-07-28T05:52:07.553Z,7.00
2022-07-28T05:54:35.745Z,6.65
2022-07-28T05:57:06.168Z,6.43
2022-07-28T05:59:34.798Z,6.53
2022-07-28T06:02:04.589Z,6.55
2022-07-28T06:04:32.528Z,6.03
2022-07-28T06:07:00.505Z,7.05
2022-07-28T06:09:28.263Z,6.97
2022-07-28T06:11:56.995Z,9.98
2022-07-28T06:14:25.858Z,7.15
2022-07-28T06:16:53.928Z,7.38
2022-07-28T06:19:22.615Z,7.38
2022-07-28T06:21:53.791Z,7.85
2022-07-28T06:24:21.892Z,7.88
2022-07-28T06:26:51.726Z,7.65
2022-07-28T06:29:22.979Z,8.30
2022-07-28T06:31:53.098Z,8.20
2022-07-28T06:34:24.956Z,7.53
2022-07-28T06:36:55.066Z,7.40
2022-07-28T06:39:22.644Z,7.72
2022-07-28T06:41:50.520Z,7.35
2022-07-28T06:44:20.871Z,7.38
2022-07-28T06:46:50.487Z,7.63
2022-07-28T06:49:19.619Z,7.15
2022-07-28T06:51:47.895Z,8.25
2022-07-28T06:54:15.769Z,7.03
2022-07-28T06:56:49.415Z,6.13
2022-07-28T06:59:20.297Z,8.25
2022-07-28T07:01:50.722Z,6.63
2022-07-28T07:04:24.143Z,7.88
2022-07-28T07:06:52.187Z,7.65
2022-07-28T07:09:20.790Z,10.25
2022-07-28T07:11:53.067Z,9.50
2022-07-28T07:14:30.576Z,8.75
2022-07-28T07:17:05.285Z,8.00
2022-07-28T07:20:06.961Z,7.40
2022-07-28T07:22:59.762Z,8.07
2022-07-28T07:25:44.251Z,7.72
2022-07-28T07:28:12.016Z,7.93
2022-07-28T07:30:39.461Z,7.72
2022-07-28T07:33:07.033Z,8.35
2022-07-28T07:35:38.160Z,8.35
2022-07-28T07:38:06.018Z,7.82
2022-07-28T07:40:35.033Z,7.75
2022-07-28T07:43:03.135Z,8.43
2022-07-28T07:45:30.601Z,8.52
2022-07-28T07:47:58.056Z,9.40
2022-07-28T07:50:25.772Z,9.85
2022-07-28T07:52:55.196Z,10.20
2022-07-28T07:55:23.417Z,8.10
2022-07-28T07:57:51.281Z,8.68
2022-07-28T08:00:29.151Z,8.45
2022-07-28T08:02:58.806Z,8.75
2022-07-28T08:05:35.426Z,9.95
2022-07-28T08:08:07.429Z,11.38
2022-07-28T08:10:38.805Z,11.27
2022-07-28T08:13:07.623Z,9.75
2022-07-28T08:15:36.972Z,9.32
2022-07-28T08:18:05.646Z,8.32
2022-07-28T08:20:33.762Z,10.85
2022-07-28T08:23:02.061Z,9.48
2022-07-28T08:25:29.820Z,8.57
2022-07-28T08:27:57.577Z,8.68
2022-07-28T08:30:30.208Z,9.90
2022-07-28T08:33:03.106Z,8.88
2022-07-28T08:35:34.700Z,11.52
2022-07-28T08:38:08.192Z,9.48
2022-07-28T08:40:38.804Z,9.18
2022-07-28T08:43:23.806Z,9.52
2022-07-28T08:45:58.362Z,8.77
2022-07-28T08:48:32.015Z,7.57
2022-07-28T08:51:09.625Z,10.02
2022-07-28T08:53:40.250Z,8.85
2022-07-28T08:56:10.226Z,8.85
2022-07-28T08:58:40.446Z,8.52
2022-07-28T09:01:11.021Z,8.63
2022-07-28T09:03:45.303Z,7.57
2022-07-28T09:06:15.565Z,6.93
2022-07-28T09:08:45.632Z,7.65
2022-07-28T09:11:13.220Z,7.50
2022-07-28T09:13:40.965Z,7.47
2022-07-28T09:16:08.757Z,7.47
2022-07-28T09:18:36.744Z,7.07
2022-07-28T09:21:06.774Z,7.80
2022-07-28T09:23:48.869Z,7.15
2022-07-28T09:26:22.862Z,7.47
2022-07-28T09:28:59.106Z,6.85
2022-07-28T09:31:28.697Z,6.95
2022-07-28T09:34:06.232Z,8.82
2022-07-28T09:36:41.850Z,8.75
2022-07-28T09:39:09.778Z,9.27
2022-07-28T09:41:50.517Z,12.43
2022-07-28T09:44:23.283Z,9.90
2022-07-28T09:46:51.564Z,8.07
2022-07-28T09:49:23.914Z,7.80
2022-07-28T09:52:03.913Z,8.50
2022-07-28T09:54:31.611Z,7.78
2022-07-28T09:56:59.520Z,7.28
2022-07-28T09:59:44.795Z,7.45
2022-07-28T10:02:31.825Z,7.93
2022-07-28T10:05:00.491Z,8.75
2022-07-28T10:07:31.075Z,7.68
2022-07-28T10:10:03.262Z,8.18
2022-07-28T10:12:34.673Z,10.95
2022-07-28T10:15:36.052Z,9.38
2022-07-28T10:18:05.163Z,13.40
2022-07-28T10:20:34.742Z,10.55
2022-07-28T10:23:23.894Z,13.43
2022-07-28T10:25:53.640Z,10.07
2022-07-28T10:28:24.442Z,9.18
2022-07-28T10:31:00.482Z,9.85
2022-07-28T10:33:33.341Z,10.55
2022-07-28T10:36:02.605Z,10.15
2022-07-28T10:38:36.585Z,10.80
2022-07-28T10:41:08.985Z,11.40
2022-07-28T10:43:42.733Z,10.48
2022-07-28T10:46:16.438Z,10.63
2022-07-28T10:48:45.832Z,8.95
2022-07-28T10:51:14.566Z,8.02
2022-07-28T10:54:17.673Z,8.85
2022-07-28T10:56:57.302Z,10.30
2022-07-28T10:59:58.161Z,10.90
2022-07-28T11:02:47.895Z,8.90
2022-07-28T11:05:41.279Z,10.88
2022-07-28T11:08:26.983Z,8.02
2022-07-28T11:11:06.778Z,8.68
2022-07-28T11:13:41.220Z,8.85
2022-07-28T11:16:16.003Z,8.40
2022-07-28T11:19:04.631Z,7.78
2022-07-28T11:21:39.750Z,7.28
2022-07-28T11:24:13.140Z,6.90
2022-07-28T11:26:46.647Z,8.80
2022-07-28T11:29:14.759Z,7.78
2022-07-28T11:31:48.198Z,6.45
2022-07-28T11:34:21.566Z,7.35
2022-07-28T11:37:07.555Z,7.47
2022-07-28T11:39:42.981Z,6.70
2022-07-28T11:42:39.106Z,5.50
2022-07-28T11:45:38.349Z,5.68
2022-07-28T11:48:18.884Z,5.43
2022-07-28T11:51:13.376Z,8.45
2022-07-28T11:53:46.349Z,6.15
2022-07-28T11:56:37.814Z,6.03
2022-07-28T11:59:09.759Z,5.82
2022-07-28T12:01:38.259Z,6.80
2022-07-28T12:04:16.196Z,6.30
2022-07-28T12:06:51.082Z,8.73
2022-07-28T12:09:25.612Z,6.25
2022-07-28T12:11:56.008Z,5.43
2022-07-28T12:14:24.335Z,5.32
2022-07-28T12:16:52.324Z,5.88
2022-07-28T12:19:22.246Z,5.28
2022-07-28T12:21:55.515Z,5.30
2022-07-28T12:24:24.941Z,5.75
2022-07-28T12:26:52.438Z,5.60
2022-07-28T12:29:20.987Z,5.25
2022-07-28T12:32:02.822Z,4.32
2022-07-28T12:34:32.390Z,3.72
2022-07-28T12:37:02.532Z,4.28
2022-07-28T12:39:32.583Z,3.92
2022-07-28T12:42:03.774Z,3.58
2022-07-28T12:44:37.717Z,4.65
2022-07-28T12:47:08.361Z,3.22
2022-07-28T12:49:37.724Z,3.50
2022-07-28T12:52:36.660Z,4.22
2022-07-28T12:55:32.922Z,4.18
2022-07-28T12:58:01.125Z,5.95
2022-07-28T13:00:34.061Z,4.18
2022-07-28T13:03:21.208Z,4.05
2022-07-28T13:06:05.558Z,3.95
2022-07-28T13:14:04.790Z,4.00
2022-07-28T13:16:34.653Z,3.88
2022-07-28T13:19:05.894Z,4.18
2022-07-28T13:21:58.529Z,4.72
2022-07-28T13:24:29.622Z,3.90
2022-07-28T13:26:59.505Z,5.47
2022-07-28T13:29:29.245Z,4.13
2022-07-28T13:31:58.072Z,5.30
2022-07-28T13:34:25.518Z,4.80
2022-07-28T13:36:53.016Z,4.88
2022-07-28T13:39:22.868Z,3.95
2022-07-28T13:41:58.296Z,5.38
2022-07-28T13:44:30.066Z,5.20
2022-07-28T13:46:59.661Z,4.10
2022-07-28T13:49:28.686Z,5.00
2022-07-28T13:51:57.281Z,4.88
2022-07-28T13:54:25.932Z,5.07
2022-07-28T13:57:15.125Z,6.05
2022-07-28T13:59:46.503Z,4.85
2022-07-28T14:02:16.358Z,6.22
2022-07-28T14:04:45.969Z,4.90
2022-07-28T14:07:20.835Z,5.00
2022-07-28T14:09:54.806Z,4.88
2022-07-28T14:12:22.626Z,6.65
2022-07-28T14:14:53.706Z,6.00
2022-07-28T14:17:43.718Z,5.30
2022-07-28T14:20:17.298Z,4.85
2022-07-28T14:22:46.574Z,5.55
2022-07-28T14:25:20.747Z,5.70
2022-07-28T14:27:52.143Z,5.05
2022-07-28T14:30:23.117Z,5.82
2022-07-28T14:32:52.794Z,5.38
2022-07-28T14:35:20.516Z,5.85
2022-07-28T14:38:35.577Z,6.90
2022-07-28T14:40:39.587Z,4.80
2022-07-28T14:43:09.674Z,6.28
2022-07-28T14:46:00.423Z,5.70
2022-07-28T14:48:27.885Z,5.15
2022-07-28T14:50:57.183Z,5.00
2022-07-28T14:53:28.063Z,5.55
2022-07-28T14:55:58.775Z,5.18
2022-07-28T14:58:27.116Z,6.10
2022-07-28T15:00:55.991Z,7.70
2022-07-28T15:03:24.019Z,7.18
2022-07-28T15:05:52.495Z,6.05
2022-07-28T15:08:21.182Z,9.00
2022-07-28T15:10:58.236Z,11.48
2022-07-28T15:13:27.090Z,5.85
2022-07-28T15:15:56.047Z,5.13
2022-07-28T15:18:24.424Z,5.90
2022-07-28T15:20:52.272Z,5.50
2022-07-28T15:23:19.859Z,5.22
2022-07-28T15:25:47.726Z,4.57
2022-07-28T15:28:17.539Z,4.82
2022-07-28T15:30:54.032Z,5.18
2022-07-28T15:33:21.851Z,5.63
2022-07-28T15:35:57.980Z,6.00
2022-07-28T15:38:32.119Z,5.15
2022-07-28T15:40:59.726Z,5.70
2022-07-28T15:43:30.198Z,4.93
2022-07-28T15:46:03.721Z,4.45
2022-07-28T15:48:32.062Z,4.80
2022-07-28T15:51:02.068Z,6.68
2022-07-28T15:53:30.177Z,5.53
2022-07-28T15:56:04.273Z,4.68
2022-07-28T15:58:32.243Z,5.20
2022-07-28T16:01:02.124Z,4.60
2022-07-28T16:03:34.318Z,4.50
2022-07-28T16:06:02.020Z,5.13
2022-07-28T16:08:30.055Z,4.22
2022-07-28T16:10:57.611Z,5.50
2022-07-28T16:13:36.738Z,4.72
2022-07-28T16:16:07.463Z,4.63
2022-07-28T16:18:38.991Z,4.68
2022-07-28T16:21:08.557Z,4.65
2022-07-28T16:23:36.893Z,4.47
2022-07-28T16:26:09.561Z,4.65
2022-07-28T16:28:37.323Z,4.03
2022-07-28T16:31:06.510Z,4.93
2022-07-28T16:33:34.757Z,4.55
2022-07-28T16:36:04.195Z,4.05
2022-07-28T16:38:31.979Z,5.00
2022-07-28T16:41:01.132Z,4.05
2022-07-28T16:43:29.639Z,5.97
2022-07-28T16:45:57.304Z,4.78
2022-07-28T16:48:25.094Z,4.43
2022-07-28T16:50:52.725Z,4.82
2022-07-28T16:53:20.768Z,4.88
2022-07-28T16:55:49.395Z,4.70
2022-07-28T16:58:18.713Z,4.82
2022-07-28T17:00:46.487Z,5.18
2022-07-28T17:03:17.129Z,4.90
2022-07-28T17:05:45.872Z,5.05
2022-07-28T17:08:15.287Z,4.95
2022-07-28T17:10:43.237Z,4.68
2022-07-28T17:13:13.239Z,6.18
2022-07-28T17:15:41.657Z,4.70
2022-07-28T17:18:12.274Z,7.03
2022-07-28T17:20:42.536Z,4.72
2022-07-28T17:23:12.040Z,5.75
2022-07-28T17:26:52.289Z,4.28
2022-07-28T17:28:48.838Z,5.28
2022-07-28T17:31:16.962Z,3.88
2022-07-28T17:33:44.586Z,3.83
2022-07-28T17:36:14.985Z,4.65
2022-07-28T17:38:45.300Z,5.85
2022-07-28T17:41:13.694Z,4.68
2022-07-28T17:43:45.787Z,5.40
2022-07-28T17:46:18.085Z,5.28
2022-07-28T17:48:49.814Z,4.78
2022-07-28T17:51:18.834Z,5.25
2022-07-28T17:53:46.255Z,5.85
2022-07-28T17:56:13.971Z,6.80
2022-07-28T17:58:42.842Z,13.43
2022-07-28T18:01:14.894Z,8.75
2022-07-28T18:03:58.202Z,6.18
2022-07-28T18:06:35.616Z,5.03
2022-07-28T18:09:08.168Z,5.90
2022-07-28T18:11:57.586Z,5.97
2022-07-28T18:14:28.883Z,5.53
2022-07-28T18:16:58.470Z,5.18
2022-07-28T18:19:28.589Z,4.80
2022-07-28T18:21:59.306Z,5.25
2022-07-28T18:24:27.205Z,5.57
2022-07-28T18:26:56.900Z,5.88
2022-07-28T18:29:25.005Z,5.95
2022-07-28T18:31:53.099Z,6.13
2022-07-28T18:34:23.431Z,5.85
2022-07-28T18:36:56.621Z,7.38
2022-07-28T18:39:24.356Z,7.05
2022-07-28T18:41:55.485Z,6.85
2022-07-28T18:44:23.105Z,7.32
2022-07-28T18:46:51.105Z,7.72
2022-07-28T18:49:20.236Z,7.70
2022-07-28T18:51:49.486Z,7.75
2022-07-28T18:54:27.153Z,7.07
2022-07-28T18:56:56.397Z,8.05
2022-07-28T18:59:24.183Z,8.82
2022-07-28T19:01:51.696Z,6.88
2022-07-28T19:04:20.320Z,7.93
2022-07-28T19:06:48.056Z,7.32
2022-07-28T19:09:15.435Z,7.78
2022-07-28T19:11:46.305Z,8.32
2022-07-28T19:14:16.153Z,7.45
2022-07-28T19:16:44.563Z,7.47
2022-07-28T19:19:12.009Z,7.47
2022-07-28T19:21:43.428Z,8.23
2022-07-28T19:24:13.877Z,8.15
2022-07-28T19:26:43.448Z,9.93
2022-07-28T19:29:11.639Z,10.68
2022-07-28T19:31:40.258Z,9.57
2022-07-28T19:34:08.435Z,10.55
2022-07-28T19:36:37.838Z,10.75
2022-07-28T19:39:05.605Z,9.45
2022-07-28T19:41:33.728Z,12.05
2022-07-28T19:44:01.357Z,11.80
2022-07-28T19:46:29.136Z,10.60
2022-07-28T19:48:57.211Z,12.85
2022-07-28T19:51:27.182Z,9.98
2022-07-28T19:53:59.365Z,11.70
2022-07-28T19:56:30.851Z,10.27
2022-07-28T19:59:03.855Z,9.57
2022-07-28T20:01:36.417Z,10.35
2022-07-28T20:04:17.365Z,9.10
2022-07-28T20:06:55.529Z,10.32
2022-07-28T20:09:51.447Z,9.63
2022-07-28T20:12:26.272Z,10.70
2022-07-28T20:14:58.389Z,10.15
2022-07-28T20:17:40.207Z,10.20
2022-07-28T20:20:17.009Z,9.50
2022-07-28T20:22:48.971Z,9.45
2022-07-28T20:25:20.628Z,9.75
2022-07-28T20:27:52.147Z,9.65
2022-07-28T20:30:19.799Z,9.60
2022-07-28T20:32:47.626Z,9.70
2022-07-28T20:35:18.151Z,9.30
2022-07-28T20:37:52.249Z,8.67
2022-07-28T20:40:24.115Z,9.60
2022-07-28T20:43:01.092Z,8.95
2022-07-28T20:45:37.519Z,8.63
2022-07-28T20:48:07.120Z,8.85
2022-07-28T20:50:34.816Z,9.50
2022-07-28T20:53:09.993Z,8.05
2022-07-28T20:55:45.445Z,8.07
2022-07-28T21:01:14.984Z,7.60
2022-07-28T21:03:44.136Z,7.70
2022-07-28T21:06:12.948Z,7.00
2022-07-28T21:08:54.095Z,6.93
2022-07-28T21:11:23.562Z,6.93
2022-07-28T21:13:52.075Z,6.78
2022-07-28T21:16:21.947Z,7.97
2022-07-28T21:18:51.791Z,7.90
2022-07-28T21:21:19.966Z,7.45
2022-07-28T21:23:48.292Z,7.80
2022-07-28T21:26:26.755Z,7.47
2022-07-28T21:32:04.266Z,8.30
2022-07-28T21:34:35.091Z,9.02
2022-07-28T21:37:08.605Z,7.93
2022-07-28T21:39:50.709Z,10.63
2022-07-28T21:42:20.702Z,9.52
2022-07-28T21:44:48.836Z,9.38
2022-07-28T21:47:16.518Z,8.35
2022-07-28T21:49:49.536Z,8.10
2022-07-28T21:52:18.205Z,8.38
2022-07-28T21:54:46.722Z,8.60
2022-07-28T21:57:22.438Z,9.25
2022-07-28T21:59:55.016Z,9.65
2022-07-28T22:02:25.125Z,8.75
2022-07-28T22:04:57.850Z,9.23
2022-07-28T22:07:28.307Z,8.85
2022-07-28T22:10:21.319Z,9.35
2022-07-28T22:12:50.814Z,8.65
2022-07-28T22:15:19.905Z,8.20
2022-07-28T22:17:50.231Z,8.93
2022-07-28T22:20:26.569Z,9.10
2022-07-28T22:22:56.853Z,9.45
2022-07-28T22:25:25.512Z,9.25
2022-07-28T22:27:53.037Z,8.52
2022-07-28T22:30:23.648Z,8.40
2022-07-28T22:32:52.232Z,8.32
2022-07-28T22:35:23.446Z,8.65
2022-07-28T22:37:52.828Z,8.43
2022-07-28T22:40:29.837Z,7.90
2022-07-28T22:42:58.182Z,8.98
2022-07-28T22:45:49.470Z,8.57
2022-07-28T22:48:19.354Z,8.40
2022-07-28T22:50:49.824Z,7.95
2022-07-28T22:53:18.030Z,8.15
2022-07-28T22:55:48.828Z,8.38
2022-07-28T22:58:21.888Z,8.80
2022-07-28T23:00:51.604Z,8.95
2022-07-28T23:03:30.215Z,7.95
2022-07-28T23:06:08.320Z,8.75
2022-07-28T23:08:39.898Z,8.15
2022-07-28T23:11:07.751Z,8.88
2022-07-28T23:13:38.985Z,8.10
2022-07-28T23:16:09.529Z,7.60
2022-07-28T23:18:44.450Z,8.05
2022-07-28T23:21:14.439Z,8.43
2022-07-28T23:23:46.412Z,10.20
2022-07-28T23:26:16.975Z,8.65
2022-07-28T23:28:45.172Z,8.48
2022-07-28T23:31:12.703Z,8.50
2022-07-28T23:33:54.334Z,9.02
2022-07-28T23:36:28.257Z,9.07
2022-07-28T23:38:58.085Z,8.15
2022-07-28T23:41:28.125Z,8.50
2022-07-28T23:43:58.465Z,8.63
2022-07-28T23:46:26.123Z,8.18
2022-07-28T23:48:57.430Z,8.45
2022-07-28T23:51:32.072Z,9.07
2022-07-28T23:54:18.220Z,8.25
2022-07-28T23:57:01.083Z,7.90
2022-07-28T23:59:35.904Z,9.48
